Archival Weather

Chicago O'Hare International

Chicago, Illinois (KORD)

Report from: Wednesday, February 16, 2022 8:51 AM CST
Current time: Saturday, February 4, 2023 10:25 PM CST

Current weather
Weather history
Weather forecast

Temperature9.4°C (48.9°F)
Wind chill5.5°C (41.8°F)
Dew point1.7°C (35.1°F)
Winds 19 kts (9.8 m/s, 21.9 mph) South-Southwest (200°)
Wind gusts 31 kts (15.9 m/s, 35.7 mph)
Peak wind 33 kts (17 m/s, 38 mph) South-Southwest (200°) at 08:19
Visibility10 mi. (16.1 km)
Clouds Ceiling: Broken clouds 4,900 ft. (1,494 m)
Overcast 6,000 ft. (1,829 m)
Altimeter29.83 in.Hg (1010 mB)
Relative humidity59 %
Density altitude-461 ft. (-141 m)
Sea-level pressure101.1 kPa (1011 mB, 29.84 in.Hg)
Remarks Automated weather observing station with precipitation discriminator
Pressure rising more quickly
Flight conditions Visual Meteorological Conditions
Raw dataKORD 161451Z 20019G31KT 10SM BKN049 OVC060 09/02 A2983 RMK AO2 PK WND 20033/1419 SLP105 T00940017 53002
An unhandled exception has occurred. See browser dev tools for details. Reload 🗙